Time;durP1;ratioP1;P1;durP2;ratioP2;P2;SDS_P1;SDS_P2;PMS_P1;PMS_P2;Temp;Humidity;BMP_temperature;BMP_pressure;BME280_temperature;BME280_humidity;BME280_pressure;Samples;Min_cycle;Max_cycle;Signal;HPM_P1;HPM_P2
2024/01/27 00:01:02;;;;;;;8.40;4.87;;;;;;;1.46;84.67;100660.53;123838;1099;104274;-75
2024/01/27 00:03:45;;;;;;;;;;;;;;;1.51;84.23;100668.63;123801;1099;104262;-75
2024/01/27 00:06:16;;;;;;;10.50;4.83;;;;;;;1.53;84.27;100677.42;123664;1099;104858;-75
2024/01/27 00:08:47;;;;;;;9.93;4.73;;;;;;;1.53;84.25;100672.25;123901;1099;104258;-76
2024/01/27 00:11:18;;;;;;;9.17;4.60;;;;;;;1.54;84.00;100668.86;123322;1099;104309;-75
2024/01/27 00:13:50;;;;;;;8.70;4.80;;;;;;;1.54;84.07;100669.78;123205;1099;104290;-74
2024/01/27 00:16:21;;;;;;;9.10;4.70;;;;;;;1.55;84.44;100670.67;123663;1099;104274;-74
2024/01/27 00:18:52;;;;;;;9.07;4.60;;;;;;;1.55;84.27;100674.14;123521;1099;104718;-74
2024/01/27 00:21:23;;;;;;;10.90;5.10;;;;;;;1.54;84.34;100679.20;123542;1099;104296;-74
2024/01/27 00:24:00;;;;;;;9.83;5.00;;;;;;;1.54;84.21;100680.13;123682;1099;104241;-74
2024/01/27 00:26:32;;;;;;;10.07;4.87;;;;;;;1.55;84.14;100676.73;123676;1099;104277;-74
2024/01/27 00:29:03;;;;;;;9.40;4.57;;;;;;;1.56;83.93;100675.07;123683;1099;104284;-74
2024/01/27 00:31:34;;;;;;;12.20;4.97;;;;;;;1.57;84.14;100674.26;123376;1099;104358;-74
2024/01/27 00:34:05;;;;;;;10.40;4.90;;;;;;;1.56;83.36;100673.38;123566;1098;104734;-76
2024/01/27 00:36:37;;;;;;;9.07;4.63;;;;;;;1.54;84.02;100674.95;123397;1099;112067;-74
2024/01/27 00:39:09;;;;;;;10.20;4.70;;;;;;;1.55;84.10;100671.56;123306;1099;104318;-74
2024/01/27 00:41:40;;;;;;;12.50;4.67;;;;;;;1.58;84.05;100660.55;123569;1098;104274;-74
2024/01/27 00:44:11;;;;;;;9.50;4.93;;;;;;;1.58;83.64;100658.86;123378;1099;104322;-75
2024/01/27 00:46:42;;;;;;;10.67;4.60;;;;;;;1.58;83.98;100656.27;123763;1099;105710;-75
2024/01/27 00:49:13;;;;;;;8.27;4.17;;;;;;;1.61;83.34;100660.78;123262;1099;104229;-75
2024/01/27 00:51:44;;;;;;;9.20;4.63;;;;;;;1.59;83.68;100655.49;123363;1099;104751;-75
2024/01/27 00:54:15;;;;;;;9.97;4.47;;;;;;;1.63;83.50;100653.13;123232;1098;104372;-75
2024/01/27 00:56:46;;;;;;;11.63;4.77;;;;;;;1.62;83.31;100652.21;123560;1099;104399;-75
2024/01/27 00:59:18;;;;;;;8.80;4.37;;;;;;;1.62;83.65;100652.21;123473;1099;104281;-75
2024/01/27 01:01:49;;;;;;;8.47;4.50;;;;;;;1.60;83.51;100648.62;123391;1099;104366;-75
2024/01/27 01:04:20;;;;;;;9.10;4.90;;;;;;;1.62;83.84;100654.80;123249;1099;104293;-75
2024/01/27 01:06:51;;;;;;;9.40;4.40;;;;;;;1.57;83.21;100648.39;123195;1099;104405;-75
2024/01/27 01:09:22;;;;;;;9.30;4.63;;;;;;;1.54;82.94;100642.99;123234;1099;104377;-75
2024/01/27 01:11:54;;;;;;;11.87;4.97;;;;;;;1.52;83.63;100649.75;123288;1099;104367;-74
2024/01/27 01:14:25;;;;;;;9.37;5.23;;;;;;;1.49;83.52;100646.94;123219;1099;104721;-74
2024/01/27 01:16:57;;;;;;;8.27;4.50;;;;;;;1.48;83.44;100646.05;123406;1099;104245;-75
2024/01/27 01:19:28;;;;;;;10.33;5.00;;;;;;;1.47;83.34;100643.34;123736;1099;104272;-73
2024/01/27 01:21:59;;;;;;;9.27;4.57;;;;;;;1.44;82.97;100642.31;123793;1099;104270;-74
2024/01/27 01:24:30;;;;;;;9.77;4.70;;;;;;;1.43;83.18;100635.36;123684;1099;104397;-75
2024/01/27 01:27:02;;;;;;;9.17;4.60;;;;;;;1.41;82.85;100636.02;123359;1099;105641;-75
2024/01/27 01:29:34;;;;;;;9.37;4.40;;;;;;;1.39;82.96;100638.50;123679;1099;104328;-75
2024/01/27 01:32:07;;;;;;;9.05;4.60;;;;;;;1.41;82.62;100638.61;123689;1099;104278;-75
2024/01/27 01:34:38;;;;;;;9.40;4.60;;;;;;;1.41;82.75;100641.20;123299;1099;104316;-75
2024/01/27 01:37:09;;;;;;;8.00;4.50;;;;;;;1.41;82.58;100642.08;123285;1099;104280;-75
2024/01/27 01:39:41;;;;;;;8.27;4.60;;;;;;;1.42;82.20;100640.42;123787;1099;104325;-74
2024/01/27 01:42:12;;;;;;;10.70;5.10;;;;;;;1.42;82.67;100640.42;123696;1099;104348;-75
2024/01/27 01:44:43;;;;;;;8.20;4.50;;;;;;;1.42;82.85;100636.14;123710;1099;104363;-75
2024/01/27 01:47:15;;;;;;;9.23;4.50;;;;;;;1.42;81.80;100624.91;123684;1099;104182;-75
2024/01/27 01:49:48;;;;;;;10.97;4.60;;;;;;;1.43;82.21;100624.09;123833;1098;104293;-75
2024/01/27 01:52:21;;;;;;;10.80;4.90;;;;;;;1.49;82.21;100623.66;123930;1099;104703;-75
2024/01/27 01:54:53;;;;;;;9.30;4.70;;;;;;;1.48;81.92;100620.19;123441;1099;104232;-75
2024/01/27 01:57:24;;;;;;;8.17;4.10;;;;;;;1.48;82.12;100616.68;123688;1099;104351;-75
2024/01/27 01:59:55;;;;;;;7.90;4.30;;;;;;;1.47;81.59;100614.91;123597;1099;104245;-75
2024/01/27 02:02:27;;;;;;;9.53;4.20;;;;;;;1.48;82.08;100622.77;123617;1099;104255;-75
2024/01/27 02:04:58;;;;;;;8.70;4.23;;;;;;;1.50;81.77;100622.89;123778;1099;104313;-75
2024/01/27 02:07:29;;;;;;;8.10;3.93;;;;;;;1.53;82.28;100611.07;123702;1099;104400;-75
2024/01/27 02:10:00;;;;;;;9.67;4.67;;;;;;;1.57;81.50;100607.02;123753;1099;104270;-75
2024/01/27 02:12:31;;;;;;;10.03;4.23;;;;;;;1.57;81.81;100601.84;123477;1099;104347;-75
2024/01/27 02:15:03;;;;;;;8.83;4.63;;;;;;;1.54;81.34;100601.61;123834;1099;104239;-75
2024/01/27 02:17:34;;;;;;;10.20;4.80;;;;;;;1.51;81.38;100593.63;123668;1099;104293;-75
2024/01/27 02:20:07;;;;;;;8.40;4.23;;;;;;;1.49;81.40;100590.05;123672;1099;104277;-74
2024/01/27 02:22:38;;;;;;;8.33;4.30;;;;;;;1.49;81.58;100584.88;123338;1099;104312;-75
2024/01/27 02:25:10;;;;;;;8.57;4.27;;;;;;;1.49;80.88;100598.69;123352;1099;104414;-76
2024/01/27 02:27:41;;;;;;;9.63;4.80;;;;;;;1.48;81.23;100595.99;123490;1099;104322;-75
2024/01/27 02:30:13;;;;;;;11.97;4.40;;;;;;;1.44;81.23;100600.94;123849;1099;104242;-75
2024/01/27 02:32:44;;;;;;;9.50;4.40;;;;;;;1.46;81.26;100594.99;123442;1099;104280;-75
2024/01/27 02:35:16;;;;;;;9.37;4.47;;;;;;;1.43;81.23;100593.98;123725;1099;104703;-75
2024/01/27 02:37:47;;;;;;;9.35;4.80;;;;;;;1.42;80.89;100589.59;123619;1099;104248;-75
2024/01/27 02:40:18;;;;;;;9.30;4.50;;;;;;;1.41;80.95;100592.95;123420;1099;104280;-76
2024/01/27 02:42:49;;;;;;;10.23;4.53;;;;;;;1.39;80.98;100589.37;123659;1099;104316;-75
2024/01/27 02:45:21;;;;;;;8.87;4.53;;;;;;;1.41;81.02;100592.06;123728;1099;104172;-75
2024/01/27 02:47:52;;;;;;;10.03;4.43;;;;;;;1.40;81.16;100592.84;123807;1099;104348;-76
2024/01/27 02:50:23;;;;;;;10.13;4.80;;;;;;;1.38;80.40;100591.84;123707;1099;104294;-75
2024/01/27 02:52:54;;;;;;;8.57;4.40;;;;;;;1.38;80.45;100595.31;123276;1099;104361;-75
2024/01/27 02:55:28;;;;;;;10.60;4.95;;;;;;;1.36;80.94;100593.42;123639;1099;104303;-75
2024/01/27 02:58:02;;;;;;;9.50;4.97;;;;;;;1.35;80.43;100597.67;123581;1099;104338;-76
2024/01/27 03:00:33;;;;;;;10.10;4.77;;;;;;;1.36;80.75;100590.84;123335;1099;104358;-74
2024/01/27 03:03:04;;;;;;;9.07;4.63;;;;;;;1.36;80.85;100588.25;123774;1099;104332;-74
2024/01/27 03:05:36;;;;;;;10.17;4.63;;;;;;;1.37;80.21;100587.44;123622;1099;104296;-74
2024/01/27 03:08:08;;;;;;;10.40;4.83;;;;;;;1.36;80.75;100583.08;123676;1099;104245;-75
2024/01/27 03:10:39;;;;;;;8.77;4.30;;;;;;;1.36;80.82;100583.97;123272;1099;104264;-75
2024/01/27 03:13:10;;;;;;;9.00;4.37;;;;;;;1.37;79.75;100580.61;123271;1099;104317;-75
2024/01/27 03:15:43;;;;;;;8.33;4.53;;;;;;;1.35;79.92;100576.98;123317;1099;104248;-74
2024/01/27 03:18:14;;;;;;;8.45;4.40;;;;;;;1.37;80.71;100567.68;123713;1099;104274;-75
2024/01/27 03:20:45;;;;;;;8.83;4.30;;;;;;;1.36;80.03;100568.45;123653;1099;104245;-75
2024/01/27 03:23:16;;;;;;;7.07;3.80;;;;;;;1.35;80.39;100570.92;123874;1099;104341;-75
2024/01/27 03:25:47;;;;;;;8.15;4.25;;;;;;;1.33;80.12;100570.81;123658;1099;104425;-75
2024/01/27 03:28:19;;;;;;;7.63;3.90;;;;;;;1.32;80.59;100569.00;123630;1099;104402;-75
2024/01/27 03:30:50;;;;;;;8.70;4.10;;;;;;;1.33;80.35;100575.09;123605;1099;104283;-74
2024/01/27 03:33:22;;;;;;;7.30;3.90;;;;;;;1.32;79.95;100565.53;123674;1099;104296;-76
2024/01/27 03:35:53;;;;;;;8.60;4.13;;;;;;;1.30;79.78;100575.76;123721;1098;104245;-73
2024/01/27 03:38:25;;;;;;;8.70;4.30;;;;;;;1.32;79.85;100578.45;123634;1099;104351;-73
2024/01/27 03:40:56;;;;;;;7.43;4.20;;;;;;;1.35;79.94;100570.92;123768;1098;104377;-76
2024/01/27 03:43:27;;;;;;;8.13;4.13;;;;;;;1.36;80.28;100571.04;123690;1099;104283;-75
2024/01/27 03:45:59;;;;;;;7.97;4.00;;;;;;;1.35;79.91;100576.98;123626;1099;104434;-76
2024/01/27 03:48:30;;;;;;;6.93;3.50;;;;;;;1.34;79.53;100571.70;123722;1099;104310;-76
2024/01/27 03:51:01;;;;;;;7.20;3.90;;;;;;;1.34;79.07;100584.62;123551;1099;104316;-75
2024/01/27 03:53:32;;;;;;;9.23;3.97;;;;;;;1.31;79.81;100582.73;123572;1099;104239;-75
2024/01/27 03:56:04;;;;;;;7.40;3.80;;;;;;;1.30;79.62;100586.10;123207;1099;104201;-76
2024/01/27 03:58:35;;;;;;;8.03;3.90;;;;;;;1.29;79.64;100583.40;123353;1099;104249;-75
2024/01/27 04:01:07;;;;;;;8.17;3.70;;;;;;;1.28;79.49;100585.09;123655;1099;104280;-76
2024/01/27 04:03:38;;;;;;;5.30;3.47;;;;;;;1.27;79.49;100584.98;123383;1099;104833;-75
2024/01/27 04:06:09;;;;;;;6.50;3.53;;;;;;;1.27;79.21;100578.12;123642;1099;104242;-76
2024/01/27 04:08:43;;;;;;;6.00;3.30;;;;;;;1.27;79.05;100579.81;123823;1099;104257;-75
2024/01/27 04:11:23;;;;;;;6.93;3.57;;;;;;;1.27;78.98;100575.53;123547;1099;104357;-75
2024/01/27 04:13:54;;;;;;;5.83;3.33;;;;;;;1.25;79.10;100579.70;123398;1099;104236;-75
2024/01/27 04:16:25;;;;;;;5.13;3.40;;;;;;;1.24;78.87;100575.30;123460;1099;104439;-75
2024/01/27 04:18:56;;;;;;;5.40;3.35;;;;;;;1.22;78.40;100577.78;123520;1099;104249;-75
2024/01/27 04:21:28;;;;;;;7.37;3.90;;;;;;;1.20;78.44;100579.36;123291;1099;104306;-75
2024/01/27 04:23:59;;;;;;;6.83;3.40;;;;;;;1.16;78.26;100577.32;123583;1098;104245;-74
2024/01/27 04:26:30;;;;;;;5.90;3.57;;;;;;;1.15;78.58;100579.79;123225;1099;104332;-75
2024/01/27 04:29:01;;;;;;;6.07;3.13;;;;;;;1.11;77.79;100572.58;123524;1098;104345;-75
2024/01/27 04:31:33;;;;;;;6.85;3.40;;;;;;;1.06;77.92;100577.41;123555;1099;104357;-75
2024/01/27 04:34:04;;;;;;;4.87;3.37;;;;;;;1.01;77.92;100571.00;123638;1099;104354;-75
2024/01/27 04:36:36;;;;;;;6.77;3.63;;;;;;;0.97;77.50;100569.00;123661;1099;104253;-75
2024/01/27 04:39:08;;;;;;;8.40;3.50;;;;;;;0.92;77.84;100567.73;123679;1099;104328;-75
2024/01/27 04:41:44;;;;;;;6.53;3.20;;;;;;;0.92;78.09;100575.48;123634;1098;117845;-75
2024/01/27 04:44:15;;;;;;;6.77;3.50;;;;;;;0.87;77.95;100577.72;123682;1099;104274;-75
2024/01/27 04:46:47;;;;;;;9.67;3.73;;;;;;;0.80;77.34;100573.78;123637;1099;104248;-75
2024/01/27 04:49:18;;;;;;;7.90;4.00;;;;;;;0.77;77.72;100576.13;123568;1099;104360;-74
2024/01/27 04:51:49;;;;;;;7.53;3.70;;;;;;;0.74;77.24;100575.90;123643;1099;104262;-74
2024/01/27 04:54:21;;;;;;;7.65;3.75;;;;;;;0.71;77.60;100580.83;123609;1098;104291;-75
2024/01/27 04:56:52;;;;;;;6.13;3.90;;;;;;;0.67;77.62;100589.11;123577;1099;104280;-75
2024/01/27 04:59:26;;;;;;;10.80;4.10;;;;;;;0.62;77.50;100593.04;123743;1099;104338;-74
2024/01/27 05:01:57;;;;;;;8.73;4.03;;;;;;;0.57;77.41;100590.10;123582;1099;113165;-76
2024/01/27 05:04:28;;;;;;;8.70;4.30;;;;;;;0.54;76.93;100597.61;123749;1099;104293;-76
2024/01/27 05:06:59;;;;;;;11.03;4.40;;;;;;;0.48;77.24;100602.30;123661;1099;104493;-75
2024/01/27 05:09:30;;;;;;;8.70;4.10;;;;;;;0.42;77.12;100595.00;123698;1099;104309;-75
2024/01/27 05:12:03;;;;;;;8.73;4.33;;;;;;;0.39;77.08;100588.67;123637;1099;104230;-76
2024/01/27 05:14:35;;;;;;;12.30;4.30;;;;;;;0.35;77.01;100588.44;123343;1099;104724;-77
2024/01/27 05:17:06;;;;;;;8.00;4.07;;;;;;;0.33;76.38;100596.87;123661;1099;104278;-77
2024/01/27 05:19:37;;;;;;;8.65;4.40;;;;;;;0.30;76.57;100594.05;123556;1098;104315;-75
2024/01/27 05:22:08;;;;;;;8.13;4.37;;;;;;;0.26;76.71;100594.58;123558;1099;104281;-76
2024/01/27 05:24:39;;;;;;;9.20;4.30;;;;;;;0.25;77.23;100592.77;123625;1099;104358;-74
2024/01/27 05:27:11;;;;;;;10.23;4.70;;;;;;;0.23;77.28;100594.34;123590;1098;104379;-75
2024/01/27 05:29:42;;;;;;;9.27;4.77;;;;;;;0.21;76.42;100601.95;123627;1099;104274;-74
2024/01/27 05:32:13;;;;;;;8.93;4.50;;;;;;;0.17;76.70;100594.74;123633;1099;104409;-75
2024/01/27 05:34:44;;;;;;;10.33;4.60;;;;;;;0.14;76.79;100594.50;123761;1099;104255;-74
2024/01/27 05:37:15;;;;;;;10.17;4.70;;;;;;;0.14;77.44;100594.50;123664;1099;104223;-75
2024/01/27 05:39:47;;;;;;;13.33;5.17;;;;;;;0.16;76.64;100598.12;123682;1099;104251;-74
2024/01/27 05:42:18;;;;;;;11.77;4.87;;;;;;;0.16;77.17;100601.59;123688;1099;104274;-74
2024/01/27 05:44:49;;;;;;;11.47;5.27;;;;;;;0.19;76.86;100606.11;123828;1099;104694;-74
2024/01/27 05:47:20;;;;;;;10.73;5.13;;;;;;;0.23;77.12;100602.97;123556;1099;104291;-74
2024/01/27 05:49:52;;;;;;;11.40;4.90;;;;;;;0.26;77.29;100602.32;123685;1099;104360;-74
2024/01/27 05:52:25;;;;;;;10.27;4.90;;;;;;;0.29;77.12;100611.19;123632;1099;104255;-74
2024/01/27 05:54:57;;;;;;;14.23;5.55;;;;;;;0.31;77.06;100609.66;123680;1099;104249;-74
2024/01/27 05:57:28;;;;;;;12.23;5.03;;;;;;;0.32;77.39;100608.85;123231;1099;104367;-74
2024/01/27 05:59:59;;;;;;;17.33;6.70;;;;;;;0.31;77.29;100609.66;123560;1099;104290;-74
2024/01/27 06:02:30;;;;;;;13.50;5.70;;;;;;;0.33;77.50;100608.08;123597;1099;104271;-74
2024/01/27 06:05:01;;;;;;;12.07;5.53;;;;;;;0.36;77.35;100615.17;123518;1099;104373;-75
2024/01/27 06:07:33;;;;;;;14.60;5.60;;;;;;;0.42;77.62;100627.64;123330;1099;104258;-74
2024/01/27 06:10:04;;;;;;;12.07;5.43;;;;;;;0.46;77.46;100624.53;123570;1099;104727;-74
2024/01/27 06:12:36;;;;;;;12.03;5.07;;;;;;;0.51;77.51;100629.28;123207;1099;104315;-74
2024/01/27 06:15:10;;;;;;;13.43;6.00;;;;;;;0.58;77.66;100635.81;123603;1099;104770;-74
2024/01/27 06:17:41;;;;;;;12.37;5.70;;;;;;;0.65;77.61;100632.91;123556;1099;104253;-74
2024/01/27 06:20:13;;;;;;;13.03;5.90;;;;;;;0.72;77.48;100636.88;123587;1099;104245;-75
2024/01/27 06:22:45;;;;;;;14.63;6.13;;;;;;;0.79;77.32;100633.08;123473;1099;104469;-75
2024/01/27 06:25:17;;;;;;;15.90;6.53;;;;;;;0.83;77.69;100635.12;123609;1099;104272;-75
2024/01/27 06:27:49;;;;;;;16.80;6.83;;;;;;;0.91;77.59;100639.19;123409;1099;104408;-74
2024/01/27 06:30:21;;;;;;;16.63;7.00;;;;;;;1.01;77.67;100644.28;123724;1099;104277;-74
2024/01/27 06:32:52;;;;;;;17.20;7.73;;;;;;;1.10;77.66;100645.75;123631;1099;104274;-74
2024/01/27 06:35:23;;;;;;;18.80;7.60;;;;;;;1.20;77.43;100645.64;123723;1099;104304;-74
2024/01/27 06:37:54;;;;;;;19.30;7.73;;;;;;;1.32;77.37;100643.09;123728;1098;104858;-74
2024/01/27 06:40:25;;;;;;;21.03;8.50;;;;;;;1.41;77.86;100634.33;123719;1099;104329;-74
2024/01/27 06:42:56;;;;;;;18.80;8.03;;;;;;;1.52;76.95;100650.64;123628;1099;104255;-74
2024/01/27 06:45:28;;;;;;;14.77;7.00;;;;;;;1.59;77.07;100647.73;123738;1099;104258;-74
2024/01/27 06:47:59;;;;;;;13.77;5.77;;;;;;;1.59;76.26;100650.32;123318;1099;104245;-75
2024/01/27 06:50:30;;;;;;;13.70;6.10;;;;;;;1.55;76.46;100648.28;124078;1099;104238;-74
2024/01/27 06:53:01;;;;;;;12.83;5.43;;;;;;;1.48;75.75;100648.63;124089;1099;104289;-75
2024/01/27 06:55:33;;;;;;;14.67;5.97;;;;;;;1.39;76.05;100650.53;124002;1099;104866;-75
2024/01/27 06:58:04;;;;;;;14.43;6.73;;;;;;;1.33;75.99;100645.80;123909;1099;104204;-75
2024/01/27 07:00:35;;;;;;;17.53;7.77;;;;;;;1.28;76.38;100644.56;124134;1099;102007;-75
2024/01/27 07:03:07;;;;;;;18.13;8.70;;;;;;;1.24;76.00;100648.58;123722;1099;105469;-74
2024/01/27 07:05:40;;;;;;;19.33;8.43;;;;;;;1.22;75.85;100647.57;123669;1099;104315;-75
2024/01/27 07:08:12;;;;;;;19.37;8.60;;;;;;;1.23;76.52;100653.63;123738;1099;104254;-74
2024/01/27 07:10:44;;;;;;;18.40;8.70;;;;;;;1.24;76.49;100652.86;123781;1099;104213;-75
2024/01/27 07:13:15;;;;;;;18.67;8.80;;;;;;;1.20;76.24;100650.81;123358;1099;104384;-75
2024/01/27 07:15:46;;;;;;;20.93;9.40;;;;;;;1.22;76.48;100649.27;123724;1099;104296;-75
2024/01/27 07:18:19;;;;;;;18.80;9.43;;;;;;;1.23;76.06;100656.22;123725;1099;104396;-75
2024/01/27 07:20:50;;;;;;;20.57;9.20;;;;;;;1.25;76.44;100654.67;123710;1099;104688;-74
2024/01/27 07:23:22;;;;;;;20.53;8.93;;;;;;;1.25;75.64;100654.67;123344;1099;104277;-75
2024/01/27 07:25:53;;;;;;;21.50;9.10;;;;;;;1.24;75.75;100663.20;123818;1099;104418;-75
2024/01/27 07:28:24;;;;;;;20.23;8.47;;;;;;;1.24;75.83;100652.86;123701;1099;104303;-75
2024/01/27 07:30:55;;;;;;;22.87;9.77;;;;;;;1.25;76.00;100657.25;123385;1099;104332;-75
2024/01/27 07:33:26;;;;;;;21.95;9.35;;;;;;;1.27;76.14;100647.92;123578;1099;104313;-75
2024/01/27 07:35:57;;;;;;;19.07;8.37;;;;;;;1.32;76.20;100648.27;123668;1099;104338;-75
2024/01/27 07:38:29;;;;;;;19.73;8.50;;;;;;;1.31;75.52;100651.63;123475;1099;104248;-75
2024/01/27 07:41:00;;;;;;;19.15;8.10;;;;;;;1.30;76.05;100652.44;123704;1099;104307;-75
2024/01/27 07:43:31;;;;;;;17.37;7.90;;;;;;;1.25;75.69;100652.09;123866;1099;104248;-75
2024/01/27 07:46:02;;;;;;;17.97;7.53;;;;;;;1.28;76.21;100654.90;123781;1099;104172;-75
2024/01/27 07:48:33;;;;;;;19.13;8.43;;;;;;;1.31;76.09;100646.45;123557;1099;104309;-75
2024/01/27 07:51:05;;;;;;;16.00;7.47;;;;;;;1.34;75.71;100639.84;123768;1099;102853;-75
2024/01/27 07:53:36;;;;;;;19.23;8.40;;;;;;;1.36;76.13;100635.68;123427;1099;104377;-75
2024/01/27 07:56:08;;;;;;;20.50;8.10;;;;;;;1.37;75.68;100629.73;123800;1098;104366;-76
2024/01/27 07:58:39;;;;;;;16.63;7.40;;;;;;;1.39;76.38;100632.44;123827;1099;104418;-75
2024/01/27 08:01:11;;;;;;;18.33;8.47;;;;;;;1.40;75.75;100634.22;123739;1099;104245;-75
2024/01/27 08:03:42;;;;;;;18.57;8.30;;;;;;;1.40;75.92;100636.80;123736;1099;104283;-75
2024/01/27 08:06:19;;;;;;;16.97;7.77;;;;;;;1.39;76.20;100643.67;123767;1098;104300;-75
2024/01/27 08:08:50;;;;;;;19.83;8.60;;;;;;;1.37;75.72;100639.16;123366;1099;104331;-76
2024/01/27 08:11:22;;;;;;;19.03;8.30;;;;;;;1.37;76.26;100645.25;123339;1098;104357;-75
2024/01/27 08:13:53;;;;;;;20.37;7.83;;;;;;;1.40;75.96;100645.48;123696;1099;104281;-75
2024/01/27 08:16:25;;;;;;;17.90;7.43;;;;;;;1.44;75.91;100644.90;123613;1099;104354;-74
2024/01/27 08:18:56;;;;;;;20.27;9.23;;;;;;;1.52;75.83;100654.92;123551;1099;104246;-75
2024/01/27 08:21:27;;;;;;;17.87;8.10;;;;;;;1.58;75.82;100656.27;123648;1099;104290;-75
2024/01/27 08:23:58;;;;;;;18.25;7.45;;;;;;;1.63;75.71;100660.89;123585;1099;104348;-75
2024/01/27 08:26:29;;;;;;;19.53;8.27;;;;;;;1.68;75.95;100672.47;123615;1099;104222;-75
2024/01/27 08:29:01;;;;;;;19.07;8.47;;;;;;;1.75;76.02;100675.62;123669;1098;104226;-76
2024/01/27 08:31:32;;;;;;;21.43;8.20;;;;;;;1.83;76.19;100672.71;123591;1099;104768;-75
2024/01/27 08:34:03;;;;;;;19.90;8.33;;;;;;;1.91;75.43;100674.16;123521;1099;104364;-75
2024/01/27 08:36:35;;;;;;;16.60;7.93;;;;;;;1.97;75.30;100669.44;123718;1099;104277;-75
2024/01/27 08:39:08;;;;;;;19.50;8.27;;;;;;;2.04;76.36;100673.36;123650;1098;104277;-75
2024/01/27 08:41:40;;;;;;;18.13;8.63;;;;;;;2.13;76.49;100669.73;123366;1099;104222;-74
2024/01/27 08:44:11;;;;;;;20.93;8.50;;;;;;;2.22;75.61;100671.21;123339;1099;104233;-75
2024/01/27 08:46:42;;;;;;;19.17;8.57;;;;;;;2.26;75.97;100676.72;123288;1099;104357;-75
2024/01/27 08:49:13;;;;;;;19.33;9.27;;;;;;;2.35;74.87;100679.05;123666;1098;104255;-75
2024/01/27 08:51:44;;;;;;;21.13;9.50;;;;;;;2.41;75.28;100676.89;123794;1099;104351;-76
2024/01/27 08:54:16;;;;;;;23.33;8.87;;;;;;;2.48;75.17;100678.25;123455;1099;104313;-75
2024/01/27 08:56:47;;;;;;;20.50;8.70;;;;;;;2.55;74.87;100671.80;123780;1099;107082;-75
2024/01/27 08:59:18;;;;;;;22.10;9.20;;;;;;;2.59;74.85;100671.23;123775;1098;104277;-76
2024/01/27 09:01:49;;;;;;;18.97;8.27;;;;;;;2.67;74.72;100675.25;123697;1099;104322;-76
2024/01/27 09:04:20;;;;;;;18.95;9.00;;;;;;;2.74;74.78;100677.46;123811;1099;104323;-76
2024/01/27 09:06:51;;;;;;;20.87;9.77;;;;;;;2.81;74.88;100673.63;123661;1099;118565;-75
2024/01/27 09:09:23;;;;;;;19.17;8.87;;;;;;;2.92;75.12;100667.48;123754;1098;104277;-75
2024/01/27 09:11:54;;;;;;;20.20;9.13;;;;;;;3.01;75.29;100664.64;123772;1099;104256;-76
2024/01/27 09:14:25;;;;;;;20.90;9.73;;;;;;;3.05;75.19;100671.81;123757;1098;104225;-76
2024/01/27 09:16:57;;;;;;;19.30;8.97;;;;;;;3.10;75.17;100666.94;123678;1099;104274;-75
2024/01/27 09:19:29;;;;;;;21.93;9.30;;;;;;;3.16;74.71;100669.95;123754;1098;104274;-75
2024/01/27 09:22:00;;;;;;;19.70;9.10;;;;;;;3.21;75.29;100672.08;123632;1099;104399;-74
2024/01/27 09:24:31;;;;;;;20.70;9.10;;;;;;;3.24;75.04;100666.17;123640;1099;104354;-75
2024/01/27 09:27:02;;;;;;;21.60;9.03;;;;;;;3.31;74.88;100668.40;123611;1099;104283;-74
2024/01/27 09:29:34;;;;;;;24.87;10.27;;;;;;;3.34;74.83;100666.02;123691;1099;104315;-74
2024/01/27 09:32:06;;;;;;;18.83;8.40;;;;;;;3.34;74.57;100659.94;123680;1099;104459;-75
2024/01/27 09:34:37;;;;;;;20.63;9.07;;;;;;;3.28;74.61;100667.30;123602;1099;104345;-76
2024/01/27 09:37:08;;;;;;;21.27;8.83;;;;;;;3.22;74.38;100667.77;123745;1099;104287;-75
2024/01/27 09:39:40;;;;;;;19.43;8.23;;;;;;;3.16;74.75;100657.87;123727;1099;104258;-75
2024/01/27 09:42:16;;;;;;;17.93;8.57;;;;;;;3.14;74.35;100667.25;123769;1099;104269;-76
2024/01/27 09:44:50;;;;;;;19.87;8.67;;;;;;;3.10;73.29;100653.97;123900;1099;104409;-75
2024/01/27 09:47:21;;;;;;;19.20;8.90;;;;;;;3.10;73.65;100665.27;123743;1099;104274;-75
2024/01/27 09:49:56;;;;;;;19.67;8.53;;;;;;;3.09;73.96;100663.45;123809;1098;104322;-76
2024/01/27 09:52:28;;;;;;;20.43;8.40;;;;;;;3.03;73.40;100661.33;123759;1099;104302;-77
2024/01/27 09:54:59;;;;;;;17.90;8.03;;;;;;;3.03;73.04;100657.86;123737;1099;104278;-75
2024/01/27 09:57:31;;;;;;;17.33;8.40;;;;;;;3.09;72.43;100662.57;123515;1099;104277;-75
2024/01/27 10:00:04;;;;;;;16.50;7.83;;;;;;;3.10;72.72;100666.94;123803;1099;104287;-75
2024/01/27 10:02:37;;;;;;;19.87;8.63;;;;;;;3.10;72.87;100665.27;123676;1099;104248;-76
2024/01/27 10:05:11;;;;;;;18.23;7.90;;;;;;;3.14;72.71;100677.63;123654;1097;104370;-75
2024/01/27 10:07:42;;;;;;;;;;;;;;;3.18;71.99;100674.45;123858;1099;104316;-76
2024/01/27 10:10:13;;;;;;;17.63;8.50;;;;;;;3.21;72.52;100676.34;123406;1099;104310;-75
2024/01/27 10:12:49;;;;;;;19.10;8.73;;;;;;;3.25;73.10;100673.17;123812;1099;104284;-76
2024/01/27 10:15:24;;;;;;;18.83;8.10;;;;;;;3.30;72.07;100674.37;123695;1099;104281;-75
2024/01/27 10:18:05;;;;;;;17.30;8.23;;;;;;;3.34;72.40;100672.91;123742;1099;104352;-75
2024/01/27 10:20:36;;;;;;;18.30;8.33;;;;;;;3.38;72.22;100669.70;123811;1099;104351;-76
2024/01/27 10:23:14;;;;;;;16.70;7.90;;;;;;;3.43;71.73;100670.93;123690;1099;104300;-75
2024/01/27 10:25:46;;;;;;;17.73;7.63;;;;;;;3.50;71.45;100667.92;123678;1099;104374;-75
2024/01/27 10:28:17;;;;;;;20.40;7.90;;;;;;;3.52;71.80;100668.95;123712;1099;104222;-75
2024/01/27 10:30:49;;;;;;;17.75;7.15;;;;;;;3.56;72.00;100670.05;123672;1099;104267;-75
2024/01/27 10:33:21;;;;;;;16.67;7.47;;;;;;;3.54;71.46;100677.72;123665;1099;104223;-75
2024/01/27 10:36:00;;;;;;;18.23;8.03;;;;;;;3.51;70.60;100680.11;123806;1099;104380;-74
2024/01/27 10:38:41;;;;;;;18.13;7.93;;;;;;;3.53;71.72;100678.51;123572;1099;104325;-75
2024/01/27 10:41:16;;;;;;;14.85;7.30;;;;;;;3.63;70.89;100677.45;123858;1099;104326;-76
2024/01/27 10:43:50;;;;;;;16.70;7.80;;;;;;;3.65;70.47;100678.44;123780;1099;104268;-75
2024/01/27 10:46:22;;;;;;;17.20;7.70;;;;;;;3.64;71.35;100681.81;123835;1099;104287;-76
2024/01/27 10:48:54;;;;;;;16.83;7.67;;;;;;;3.62;70.61;100677.34;123777;1099;118727;-75
2024/01/27 10:51:36;;;;;;;17.90;7.97;;;;;;;3.59;71.04;100676.33;123861;1099;104383;-75
2024/01/27 10:54:09;;;;;;;16.77;8.17;;;;;;;3.58;70.59;100682.33;123911;1099;104644;-75
2024/01/27 10:56:43;;;;;;;16.50;7.78;;;;;;;3.57;70.08;100685.71;123589;1099;104358;-74
2024/01/27 10:59:15;;;;;;;16.70;7.40;;;;;;;3.60;70.75;100677.24;123881;1099;104377;-75
2024/01/27 11:01:50;;;;;;;16.83;7.77;;;;;;;3.66;70.05;100687.11;123946;1098;104287;-76
2024/01/27 11:04:22;;;;;;;20.00;7.90;;;;;;;3.63;69.98;100687.83;123962;1099;104373;-75
2024/01/27 11:06:54;;;;;;;21.40;8.25;;;;;;;3.62;70.87;100679.94;123696;1099;104294;-74
2024/01/27 11:09:26;;;;;;;17.27;7.77;;;;;;;3.66;69.57;100681.92;124181;1099;104303;-75
2024/01/27 11:11:59;;;;;;;16.57;8.17;;;;;;;3.64;69.77;100680.93;123714;1099;104380;-75
2024/01/27 11:14:30;;;;;;;17.90;7.90;;;;;;;3.64;70.40;100691.31;123812;1099;104251;-75
2024/01/27 11:17:02;;;;;;;17.63;7.90;;;;;;;3.70;70.11;100690.01;123743;1099;104245;-75
2024/01/27 11:19:34;;;;;;;20.10;8.73;;;;;;;3.70;69.59;100694.31;123769;1099;104645;-76
2024/01/27 11:22:06;;;;;;;17.37;8.20;;;;;;;3.68;68.67;100682.94;123753;1098;104320;-76
2024/01/27 11:24:37;;;;;;;17.90;8.10;;;;;;;3.64;69.34;100688.72;123974;1099;104280;-75
2024/01/27 11:27:09;;;;;;;16.63;7.90;;;;;;;3.63;69.41;100692.09;123790;1099;104306;-75
2024/01/27 11:29:49;;;;;;;19.97;8.40;;;;;;;3.63;68.84;100692.09;123904;1099;104242;-75
2024/01/27 11:32:21;;;;;;;18.27;8.30;;;;;;;3.68;69.62;100703.70;123889;1099;104290;-76